createdAt,value
2019-01-09T00:01:45.533Z,1.30
2019-01-09T00:04:17.218Z,1.17
2019-01-09T00:06:49.412Z,1.40
2019-01-09T00:09:23.736Z,1.20
2019-01-09T00:11:55.455Z,1.00
2019-01-09T00:14:26.996Z,1.03
2019-01-09T00:16:58.644Z,1.37
2019-01-09T00:19:30.303Z,1.17
2019-01-09T00:22:01.991Z,1.23
2019-01-09T00:24:33.618Z,1.40
2019-01-09T00:27:05.181Z,1.30
2019-01-09T00:29:36.790Z,1.43
2019-01-09T00:32:08.522Z,1.13
2019-01-09T00:34:40.160Z,1.23
2019-01-09T00:37:11.894Z,1.43
2019-01-09T00:39:43.472Z,0.90
2019-01-09T00:42:14.999Z,1.40
2019-01-09T00:44:46.536Z,1.20
2019-01-09T00:47:18.104Z,1.20
2019-01-09T00:49:49.729Z,1.33
2019-01-09T00:52:21.267Z,1.27
2019-01-09T00:54:52.915Z,1.00
2019-01-09T00:57:24.498Z,1.20
2019-01-09T00:59:56.067Z,1.00
2019-01-09T01:03:28.373Z,1.10
2019-01-09T01:06:52.028Z,1.03
2019-01-09T01:10:41.109Z,1.00
2019-01-09T01:13:57.310Z,1.03
2019-01-09T01:17:39.475Z,0.90
2019-01-09T01:21:09.693Z,0.83
2019-01-09T01:25:10.058Z,0.80
2019-01-09T01:28:30.789Z,0.90
2019-01-09T01:31:52.527Z,1.00
2019-01-09T01:35:31.460Z,0.90
2019-01-09T01:39:17.097Z,0.90
2019-01-09T01:42:58.496Z,0.87
2019-01-09T01:46:20.553Z,1.13
2019-01-09T01:49:31.342Z,0.90
2019-01-09T01:53:30.605Z,0.80
2019-01-09T01:56:44.354Z,0.87
2019-01-09T01:59:29.940Z,0.97
2019-01-09T02:03:14.509Z,0.90
2019-01-09T02:06:13.455Z,2.63
2019-01-09T02:09:44.341Z,2.50
2019-01-09T02:13:24.861Z,0.90
2019-01-09T02:17:14.639Z,0.90
2019-01-09T02:20:16.379Z,1.00
2019-01-09T02:24:03.134Z,0.73
2019-01-09T02:27:37.589Z,10.03
2019-01-09T02:30:56.368Z,10.10
2019-01-09T02:33:27.978Z,6.90
2019-01-09T02:35:59.571Z,4.10
2019-01-09T02:38:31.264Z,1.77
2019-01-09T02:41:02.818Z,0.80
2019-01-09T02:43:34.382Z,0.97
2019-01-09T02:46:05.931Z,0.80
2019-01-09T02:48:37.579Z,0.90
2019-01-09T02:51:09.240Z,0.97
2019-01-09T02:53:40.887Z,0.90
2019-01-09T02:56:12.536Z,1.20
2019-01-09T02:58:44.102Z,1.60
2019-01-09T03:01:15.770Z,1.07
2019-01-09T03:03:47.349Z,1.90
2019-01-09T03:06:23.044Z,0.90
2019-01-09T03:08:52.240Z,0.80
2019-01-09T03:11:23.849Z,1.40
2019-01-09T03:13:56.571Z,2.20
2019-01-09T03:16:28.139Z,1.60
2019-01-09T03:18:59.677Z,1.33
2019-01-09T03:21:31.238Z,1.40
2019-01-09T03:24:02.792Z,1.67
2019-01-09T03:26:34.405Z,1.70
2019-01-09T03:29:06.022Z,1.67
2019-01-09T03:31:37.677Z,2.07
2019-01-09T03:34:09.257Z,1.90
2019-01-09T03:36:40.828Z,1.60
2019-01-09T03:39:12.378Z,1.30
2019-01-09T03:41:43.985Z,1.20
2019-01-09T03:44:15.559Z,0.80
2019-01-09T03:46:47.204Z,1.00
2019-01-09T03:49:18.788Z,1.00
2019-01-09T03:51:50.416Z,1.10
2019-01-09T03:54:22.061Z,0.97
2019-01-09T03:56:53.662Z,0.80
2019-01-09T03:59:25.202Z,0.87
2019-01-09T04:01:56.765Z,0.67
2019-01-09T04:04:28.424Z,0.60
2019-01-09T04:07:00.061Z,0.97
2019-01-09T04:09:31.626Z,1.03
2019-01-09T04:12:03.240Z,0.90
2019-01-09T04:14:34.798Z,1.13
2019-01-09T04:17:06.346Z,1.40
2019-01-09T04:19:37.947Z,0.97
2019-01-09T04:22:09.494Z,1.00
2019-01-09T04:24:41.113Z,1.20
2019-01-09T04:27:12.662Z,0.87
2019-01-09T04:29:44.292Z,1.10
2019-01-09T04:32:15.860Z,0.93
2019-01-09T04:34:47.413Z,1.07
2019-01-09T04:37:18.992Z,1.30
2019-01-09T04:39:50.575Z,1.30
2019-01-09T04:42:22.141Z,0.87
2019-01-09T04:44:53.730Z,0.80
2019-01-09T04:47:25.286Z,1.10
2019-01-09T04:49:56.837Z,3.03
2019-01-09T04:52:28.454Z,1.30
2019-01-09T04:55:00.032Z,0.93
2019-01-09T04:57:31.700Z,1.20
2019-01-09T05:00:03.279Z,1.93
2019-01-09T05:02:36.038Z,1.67
2019-01-09T05:05:07.779Z,2.00
2019-01-09T05:07:39.950Z,2.20
2019-01-09T05:10:11.616Z,1.57
2019-01-09T05:12:43.861Z,1.53
2019-01-09T05:15:15.490Z,1.27
2019-01-09T05:17:47.073Z,2.10
2019-01-09T05:20:18.822Z,1.37
2019-01-09T05:22:50.393Z,1.90
2019-01-09T05:25:21.958Z,1.80
2019-01-09T05:27:53.866Z,2.17
2019-01-09T05:30:25.525Z,3.63
2019-01-09T05:32:57.214Z,3.87
2019-01-09T05:35:28.824Z,4.00
2019-01-09T05:38:00.499Z,3.33
2019-01-09T05:40:32.140Z,2.70
2019-01-09T05:43:31.842Z,1.60
2019-01-09T05:46:04.193Z,1.93
2019-01-09T05:48:35.777Z,1.53
2019-01-09T05:51:07.483Z,1.63
2019-01-09T05:53:39.050Z,1.20
2019-01-09T05:56:10.885Z,1.23
2019-01-09T05:58:42.473Z,1.13
2019-01-09T06:01:14.131Z,1.70
2019-01-09T06:03:45.880Z,0.97
2019-01-09T06:06:17.788Z,1.00
2019-01-09T06:08:49.437Z,1.03
2019-01-09T06:11:22.416Z,1.07
2019-01-09T06:13:54.075Z,0.90
2019-01-09T06:16:25.703Z,1.00
2019-01-09T06:18:57.349Z,1.00
2019-01-09T06:21:29.079Z,0.97
2019-01-09T06:24:00.697Z,1.00
2019-01-09T06:26:32.348Z,1.30
2019-01-09T06:29:04.024Z,1.40
2019-01-09T06:31:35.620Z,1.50
2019-01-09T06:34:10.703Z,1.63
2019-01-09T06:36:42.560Z,1.60
2019-01-09T06:39:14.350Z,1.90
2019-01-09T06:41:45.969Z,1.70
2019-01-09T06:44:17.632Z,1.40
2019-01-09T06:46:49.411Z,1.37
2019-01-09T06:49:20.997Z,1.77
2019-01-09T06:51:52.697Z,1.80
2019-01-09T06:54:24.297Z,1.80
2019-01-09T06:56:56.133Z,1.50
2019-01-09T06:59:27.831Z,1.80
2019-01-09T07:01:59.466Z,1.90
2019-01-09T07:04:31.183Z,1.90
2019-01-09T07:07:02.911Z,2.27
2019-01-09T07:09:34.551Z,2.10
2019-01-09T07:12:06.152Z,2.57
2019-01-09T07:14:37.874Z,2.37
2019-01-09T07:17:09.519Z,2.80
2019-01-09T07:19:41.245Z,3.10
2019-01-09T07:22:12.867Z,2.97
2019-01-09T07:24:44.710Z,3.23
2019-01-09T07:27:16.312Z,3.30
2019-01-09T07:29:47.978Z,4.10
2019-01-09T07:32:19.577Z,4.17
2019-01-09T07:34:51.263Z,3.93
2019-01-09T07:37:22.850Z,3.90
2019-01-09T07:39:54.550Z,4.13
2019-01-09T07:42:26.202Z,4.97
2019-01-09T07:44:57.814Z,4.50
2019-01-09T07:47:29.518Z,5.17
2019-01-09T07:50:01.439Z,5.60
2019-01-09T07:52:33.108Z,5.20
2019-01-09T07:55:04.804Z,5.07
2019-01-09T07:57:36.396Z,4.90
2019-01-09T08:00:10.714Z,5.63
2019-01-09T08:02:42.377Z,5.97
2019-01-09T08:05:14.005Z,7.13
2019-01-09T08:07:53.603Z,6.67
2019-01-09T08:10:19.300Z,7.20
2019-01-09T08:12:50.914Z,7.13
2019-01-09T08:15:22.500Z,6.73
2019-01-09T08:17:54.059Z,6.53
2019-01-09T08:20:25.713Z,5.33
2019-01-09T08:22:57.419Z,5.10
2019-01-09T08:25:29.098Z,5.13
2019-01-09T08:28:00.730Z,4.77
2019-01-09T08:30:32.414Z,5.13
2019-01-09T08:33:04.370Z,5.43
2019-01-09T08:35:36.008Z,5.30
2019-01-09T08:38:07.581Z,6.60
2019-01-09T08:40:39.348Z,8.37
2019-01-09T08:43:10.957Z,8.30
2019-01-09T08:45:42.555Z,6.30
2019-01-09T08:48:14.227Z,4.90
2019-01-09T08:50:45.849Z,5.23
2019-01-09T08:53:17.421Z,6.40
2019-01-09T08:55:48.989Z,5.93
2019-01-09T08:58:20.743Z,5.67
2019-01-09T09:00:52.360Z,5.00
2019-01-09T09:03:23.954Z,5.40
2019-01-09T09:05:55.539Z,6.00
2019-01-09T09:08:27.437Z,4.90
2019-01-09T09:10:59.090Z,5.63
2019-01-09T09:13:41.126Z,5.60
2019-01-09T09:16:13.356Z,6.40
2019-01-09T09:18:44.963Z,6.43
2019-01-09T09:21:16.592Z,5.43
2019-01-09T09:23:48.180Z,5.20
2019-01-09T09:26:20.824Z,6.00
2019-01-09T09:28:52.506Z,6.77
2019-01-09T09:35:00.743Z,6.77
2019-01-09T09:37:37.970Z,8.37
2019-01-09T09:40:24.030Z,9.57
2019-01-09T09:43:04.670Z,8.70
2019-01-09T09:45:38.245Z,9.27
2019-01-09T09:48:09.901Z,9.57
2019-01-09T09:50:43.914Z,9.17
2019-01-09T09:53:16.696Z,9.37
2019-01-09T09:55:48.281Z,10.17
2019-01-09T09:58:19.912Z,10.60
2019-01-09T10:00:51.472Z,10.10
2019-01-09T10:03:23.082Z,19.17
2019-01-09T10:05:54.735Z,19.20
2019-01-09T10:08:29.446Z,20.07
2019-01-09T10:10:59.741Z,23.77
2019-01-09T10:13:31.395Z,26.47
2019-01-09T10:16:02.996Z,24.77
2019-01-09T10:18:34.686Z,22.40
2019-01-09T10:21:06.758Z,18.37
2019-01-09T10:23:38.457Z,16.30
2019-01-09T10:26:10.159Z,18.13
2019-01-09T10:28:41.746Z,18.93
2019-01-09T10:31:13.364Z,22.83
2019-01-09T10:33:44.908Z,20.10
2019-01-09T10:36:16.649Z,22.87
2019-01-09T10:38:48.326Z,22.03
2019-01-09T10:41:19.900Z,19.47
2019-01-09T10:43:51.454Z,17.60
2019-01-09T10:46:23.173Z,19.63
2019-01-09T10:48:54.912Z,15.13
2019-01-09T10:51:26.767Z,14.43
2019-01-09T10:53:58.382Z,16.17
2019-01-09T10:56:29.983Z,15.50
2019-01-09T10:59:01.580Z,13.60
2019-01-09T11:01:33.218Z,15.03
2019-01-09T11:04:04.772Z,19.20
2019-01-09T11:06:36.417Z,20.50
2019-01-09T11:09:09.635Z,21.60
2019-01-09T11:11:41.204Z,21.10
2019-01-09T11:14:12.785Z,19.00
2019-01-09T11:16:44.347Z,18.17
2019-01-09T11:19:16.006Z,17.23
2019-01-09T11:21:47.558Z,17.63
2019-01-09T11:24:19.122Z,14.30
2019-01-09T11:26:50.718Z,18.30
2019-01-09T11:29:22.370Z,15.17
2019-01-09T11:31:53.979Z,15.77
2019-01-09T11:34:25.761Z,15.90
2019-01-09T11:36:57.402Z,16.00
2019-01-09T11:39:29.103Z,16.57
2019-01-09T11:42:00.787Z,13.10
2019-01-09T11:44:32.396Z,9.87
2019-01-09T11:47:04.155Z,12.60
2019-01-09T11:49:35.821Z,10.20
2019-01-09T11:52:07.506Z,13.97
2019-01-09T11:54:39.197Z,13.03
2019-01-09T11:57:10.917Z,12.63
2019-01-09T11:59:42.495Z,11.70
2019-01-09T12:02:21.815Z,15.07
2019-01-09T12:04:48.084Z,17.80
2019-01-09T12:07:19.670Z,22.07
2019-01-09T12:09:51.246Z,47.90
2019-01-09T12:12:22.949Z,41.97
2019-01-09T12:14:54.572Z,25.67
2019-01-09T12:17:26.234Z,20.37
2019-01-09T12:19:57.896Z,20.50
2019-01-09T12:22:29.473Z,15.90
2019-01-09T12:25:01.194Z,13.90
2019-01-09T12:27:32.853Z,13.13
2019-01-09T12:30:05.604Z,13.97
2019-01-09T12:32:37.201Z,16.70
2019-01-09T12:35:09.144Z,14.67
2019-01-09T12:37:40.844Z,17.07
2019-01-09T12:40:12.830Z,14.70
2019-01-09T12:42:54.574Z,16.43
2019-01-09T12:45:26.177Z,13.27
2019-01-09T12:47:57.749Z,13.93
2019-01-09T12:50:29.333Z,14.57
2019-01-09T12:53:00.895Z,13.53
2019-01-09T12:55:32.491Z,15.83
2019-01-09T12:58:04.135Z,13.03
2019-01-09T13:00:35.711Z,12.80
2019-01-09T13:03:07.409Z,14.33
2019-01-09T13:05:39.207Z,13.57
2019-01-09T13:08:10.818Z,14.53
2019-01-09T13:10:42.426Z,16.90
2019-01-09T13:13:14.159Z,13.73
2019-01-09T13:15:45.846Z,14.10
2019-01-09T13:18:17.417Z,17.33
2019-01-09T13:20:49.877Z,16.90
2019-01-09T13:23:21.502Z,16.53
2019-01-09T13:25:53.071Z,18.63
2019-01-09T13:28:24.663Z,20.83
2019-01-09T13:30:56.238Z,20.17
2019-01-09T13:33:27.855Z,20.20
2019-01-09T13:35:59.430Z,16.87
2019-01-09T13:38:31.022Z,18.00
2019-01-09T13:41:02.656Z,19.17
2019-01-09T13:43:34.239Z,22.13
2019-01-09T13:46:06.087Z,25.67
2019-01-09T13:48:37.815Z,17.77
2019-01-09T13:51:09.665Z,18.80
2019-01-09T13:53:41.254Z,18.13
2019-01-09T13:56:12.867Z,20.57
2019-01-09T13:58:44.474Z,22.63
2019-01-09T14:01:16.056Z,25.33
2019-01-09T14:03:49.117Z,24.97
2019-01-09T14:06:24.902Z,24.57
2019-01-09T14:08:56.581Z,26.53
2019-01-09T14:11:28.206Z,24.20
2019-01-09T14:14:00.003Z,23.80
2019-01-09T14:16:31.581Z,24.77
2019-01-09T14:19:03.215Z,21.60
2019-01-09T14:21:34.913Z,19.77
2019-01-09T14:24:06.661Z,25.33
2019-01-09T14:26:38.235Z,25.83
2019-01-09T14:29:09.945Z,25.60
2019-01-09T14:31:41.599Z,24.77
2019-01-09T14:34:13.217Z,23.40
2019-01-09T14:36:44.838Z,17.90
2019-01-09T14:39:16.524Z,21.10
2019-01-09T14:41:48.053Z,21.57
2019-01-09T14:44:19.716Z,18.37
2019-01-09T14:46:51.524Z,19.33
2019-01-09T14:49:23.101Z,19.67
2019-01-09T14:51:54.840Z,23.20
2019-01-09T14:54:26.523Z,22.37
2019-01-09T14:56:58.251Z,17.30
2019-01-09T14:59:30.029Z,19.57
2019-01-09T15:02:01.690Z,22.23
2019-01-09T15:04:33.335Z,23.57
2019-01-09T15:07:04.987Z,26.53
2019-01-09T15:09:36.633Z,25.20
2019-01-09T15:12:08.329Z,23.40
2019-01-09T15:14:39.986Z,24.33
2019-01-09T15:17:11.826Z,26.23
2019-01-09T15:19:43.403Z,17.50
2019-01-09T15:22:15.001Z,15.73
2019-01-09T15:24:46.859Z,16.63
2019-01-09T15:27:18.495Z,20.20
2019-01-09T15:29:50.163Z,18.00
2019-01-09T15:32:21.803Z,19.43
2019-01-09T15:34:53.443Z,16.33
2019-01-09T15:37:25.178Z,20.70
2019-01-09T15:40:05.218Z,18.03
2019-01-09T15:42:30.744Z,21.17
2019-01-09T15:45:09.843Z,17.33
2019-01-09T15:47:41.848Z,17.77
2019-01-09T15:50:16.945Z,17.13
2019-01-09T15:52:49.347Z,20.63
2019-01-09T15:55:21.267Z,21.77
2019-01-09T15:57:54.853Z,20.80
2019-01-09T16:00:37.206Z,22.53
2019-01-09T16:03:09.268Z,20.70
2019-01-09T16:05:41.056Z,22.33
2019-01-09T16:08:14.182Z,21.97
2019-01-09T16:10:52.269Z,21.17
2019-01-09T16:13:23.945Z,19.10
2019-01-09T16:15:55.616Z,19.23
2019-01-09T16:18:27.280Z,21.03
2019-01-09T16:20:58.936Z,22.20
2019-01-09T16:23:31.694Z,22.47
2019-01-09T16:26:03.553Z,21.30
2019-01-09T16:28:35.364Z,23.33
2019-01-09T16:31:41.126Z,24.37
2019-01-09T16:34:14.393Z,26.73
2019-01-09T16:36:46.046Z,28.40
2019-01-09T16:39:17.697Z,31.47
2019-01-09T16:41:50.417Z,30.03
2019-01-09T16:44:22.425Z,28.60
2019-01-09T16:46:54.383Z,30.00
2019-01-09T16:49:28.493Z,33.13
2019-01-09T16:52:00.430Z,33.07
2019-01-09T16:54:32.261Z,33.80
2019-01-09T16:57:04.060Z,32.23
2019-01-09T16:59:35.969Z,32.10
2019-01-09T17:02:07.863Z,27.23
2019-01-09T17:04:39.501Z,34.30
2019-01-09T17:07:11.312Z,34.83
2019-01-09T17:09:43.281Z,34.30
2019-01-09T17:12:17.294Z,37.63
2019-01-09T17:14:49.102Z,36.37
2019-01-09T17:17:20.905Z,31.40
2019-01-09T17:19:55.824Z,34.33
2019-01-09T17:22:30.800Z,34.33
2019-01-09T17:25:02.788Z,35.03
2019-01-09T17:27:37.698Z,40.00
2019-01-09T17:30:17.685Z,39.07
2019-01-09T17:32:49.581Z,39.23
2019-01-09T17:35:23.825Z,35.27
2019-01-09T17:37:57.224Z,35.60
2019-01-09T17:40:28.902Z,40.87
2019-01-09T17:43:03.757Z,37.40
2019-01-09T17:45:35.669Z,40.13
2019-01-09T17:48:10.583Z,37.17
2019-01-09T17:50:42.761Z,35.50
2019-01-09T17:53:14.508Z,36.83
2019-01-09T17:55:46.266Z,41.03
2019-01-09T17:58:18.378Z,38.73
2019-01-09T18:00:53.753Z,43.10
2019-01-09T18:03:25.581Z,45.57
2019-01-09T18:05:57.374Z,43.27
2019-01-09T18:08:29.371Z,40.33
2019-01-09T18:11:01.039Z,38.90
2019-01-09T18:13:33.003Z,41.33
2019-01-09T18:16:04.746Z,40.10
2019-01-09T18:18:36.448Z,42.50
2019-01-09T18:21:08.373Z,40.70
2019-01-09T18:23:40.056Z,43.83
2019-01-09T18:26:11.699Z,42.53
2019-01-09T18:28:43.543Z,42.43
2019-01-09T18:32:07.254Z,42.53
2019-01-09T18:35:29.140Z,36.93
2019-01-09T18:38:39.874Z,39.13
2019-01-09T18:42:22.912Z,41.47
2019-01-09T18:45:39.951Z,44.23
2019-01-09T18:49:02.448Z,44.10
2019-01-09T18:52:45.169Z,43.60
2019-01-09T18:55:30.866Z,41.83
2019-01-09T18:58:02.583Z,43.30
2019-01-09T19:00:34.224Z,42.27
2019-01-09T19:03:06.089Z,40.07
2019-01-09T19:05:37.921Z,43.90
2019-01-09T19:08:09.914Z,45.53
2019-01-09T19:10:41.722Z,47.70
2019-01-09T19:13:13.614Z,48.33
2019-01-09T19:15:45.752Z,49.90
2019-01-09T19:18:17.766Z,50.87
2019-01-09T19:21:02.166Z,46.73
2019-01-09T19:23:33.957Z,42.03
2019-01-09T19:26:05.671Z,50.93
2019-01-09T19:28:37.457Z,49.70
2019-01-09T19:31:11.879Z,46.13
2019-01-09T19:33:43.649Z,61.73
2019-01-09T19:36:15.463Z,45.77
2019-01-09T19:38:47.179Z,46.17
2019-01-09T19:41:19.070Z,43.17
2019-01-09T19:43:51.082Z,44.40
2019-01-09T19:46:22.900Z,46.70
2019-01-09T19:48:54.973Z,41.50
2019-01-09T19:51:26.606Z,42.70
2019-01-09T19:53:58.430Z,38.00
2019-01-09T19:56:30.241Z,44.33
2019-01-09T19:59:02.011Z,41.83
2019-01-09T20:01:33.784Z,42.80
2019-01-09T20:04:05.568Z,43.43
2019-01-09T20:06:44.993Z,42.10
2019-01-09T20:09:18.150Z,41.93
2019-01-09T20:11:50.488Z,40.67
2019-01-09T20:14:22.364Z,43.97
2019-01-09T20:16:54.228Z,38.83
2019-01-09T20:19:25.948Z,37.27
2019-01-09T20:21:58.464Z,39.93
2019-01-09T20:24:30.305Z,42.20
2019-01-09T20:27:02.033Z,40.43
2019-01-09T20:29:34.726Z,42.50
2019-01-09T20:32:06.524Z,41.67
2019-01-09T20:34:38.369Z,41.33
2019-01-09T20:37:10.382Z,43.07
2019-01-09T20:39:42.246Z,43.27
2019-01-09T20:42:13.994Z,44.57
2019-01-09T20:44:45.908Z,45.00
2019-01-09T20:47:17.725Z,46.23
2019-01-09T20:49:51.142Z,48.83
2019-01-09T20:52:25.966Z,47.63
2019-01-09T20:54:57.681Z,54.47
2019-01-09T20:57:29.403Z,48.07
2019-01-09T21:00:01.225Z,51.13
2019-01-09T21:02:33.407Z,47.30
2019-01-09T21:05:11.156Z,45.03
2019-01-09T21:07:42.967Z,47.93
2019-01-09T21:10:14.979Z,45.90
2019-01-09T21:12:46.698Z,44.30
2019-01-09T21:15:18.468Z,46.17
2019-01-09T21:17:50.277Z,45.43
2019-01-09T21:20:22.580Z,45.03
2019-01-09T21:22:54.299Z,45.23
2019-01-09T21:25:25.969Z,45.87
2019-01-09T21:27:57.719Z,44.27
2019-01-09T21:30:29.505Z,43.30
2019-01-09T21:33:01.388Z,43.27
2019-01-09T21:36:11.661Z,43.80
2019-01-09T21:38:53.690Z,44.07
2019-01-09T21:41:30.188Z,41.50
2019-01-09T21:44:16.165Z,43.33
2019-01-09T21:46:47.294Z,43.33
2019-01-09T21:49:19.165Z,46.30
2019-01-09T21:51:50.803Z,43.03
2019-01-09T21:54:32.643Z,42.00
2019-01-09T21:57:09.407Z,42.70
2019-01-09T21:59:41.164Z,41.03
2019-01-09T22:02:12.963Z,39.50
2019-01-09T22:04:44.760Z,40.67
2019-01-09T22:07:18.357Z,36.90
2019-01-09T22:09:50.482Z,33.37
2019-01-09T22:12:23.991Z,36.23
2019-01-09T22:14:55.854Z,35.70
2019-01-09T22:17:27.613Z,34.47
2019-01-09T22:19:59.468Z,32.43
2019-01-09T22:22:31.189Z,30.13
2019-01-09T22:25:02.994Z,34.27
2019-01-09T22:27:34.602Z,32.07
2019-01-09T22:30:11.032Z,32.10
2019-01-09T22:33:04.719Z,34.70
2019-01-09T22:35:41.615Z,33.47
2019-01-09T22:38:15.144Z,31.20
2019-01-09T22:41:03.568Z,34.50
2019-01-09T22:43:36.934Z,32.30
2019-01-09T22:46:26.086Z,33.03
2019-01-09T22:49:23.614Z,31.50
2019-01-09T22:51:59.523Z,32.57
2019-01-09T22:54:36.163Z,27.30
2019-01-09T22:57:06.326Z,32.33
2019-01-09T22:59:38.043Z,31.33
2019-01-09T23:02:10.843Z,34.20
2019-01-09T23:04:42.548Z,30.23
2019-01-09T23:07:14.249Z,33.10
2019-01-09T23:09:45.917Z,32.73
2019-01-09T23:12:21.438Z,29.37
2019-01-09T23:14:50.965Z,29.77
2019-01-09T23:17:22.770Z,31.77
2019-01-09T23:19:54.452Z,29.83
2019-01-09T23:22:26.252Z,31.50
2019-01-09T23:24:57.955Z,30.23
2019-01-09T23:27:29.647Z,31.63
2019-01-09T23:30:01.295Z,30.63
2019-01-09T23:32:33.264Z,30.17
2019-01-09T23:35:04.949Z,29.70
2019-01-09T23:37:36.608Z,31.20
2019-01-09T23:40:08.871Z,29.77
2019-01-09T23:42:40.684Z,31.77
2019-01-09T23:45:12.367Z,29.43
2019-01-09T23:47:43.988Z,31.53
2019-01-09T23:50:15.620Z,33.27
2019-01-09T23:52:47.274Z,34.63
2019-01-09T23:55:18.933Z,33.07
2019-01-09T23:57:50.628Z,33.43
